Time;durP1;ratioP1;P1;durP2;ratioP2;P2;SDS_P1;SDS_P2;PMS_P1;PMS_P2;Temp;Humidity;BMP_temperature;BMP_pressure;BME280_temperature;BME280_humidity;BME280_pressure;Samples;Min_cycle;Max_cycle;Signal;HPM_P1;HPM_P2
2021/04/11 00:00:36;;;;;;;0.10;0.10;;;;;;;-2.71;82.58;101813.87;1707267;82;21410;-44
2021/04/11 00:03:09;;;;;;;0.10;0.10;;;;;;;-2.74;82.66;101809.34;1732626;82;21141;-44
2021/04/11 00:05:39;;;;;;;0.40;0.40;;;;;;;-2.77;82.78;101809.13;1726936;82;21146;-44
2021/04/11 00:08:09;;;;;;;0.10;0.10;;;;;;;-2.79;82.88;101816.51;1732336;82;21146;-44
2021/04/11 00:10:40;;;;;;;0.15;0.15;;;;;;;-2.83;82.94;101815.97;1708504;82;21146;-43
2021/04/11 00:13:16;;;;;;;0.10;0.10;;;;;;;-2.86;82.97;101818.96;1703093;84;21449;-44
2021/04/11 00:15:43;;;;;;;2.90;1.55;;;;;;;-2.90;83.01;101819.43;1702321;84;21174;-44
2021/04/11 00:18:11;;;;;;;0.47;0.47;;;;;;;-2.93;83.07;101821.09;1702950;84;21153;-43
2021/04/11 00:20:39;;;;;;;4.75;1.92;;;;;;;-2.97;83.07;101823.73;1672667;84;21173;-44
2021/04/11 00:23:06;;;;;;;1.00;1.00;;;;;;;-3.00;83.25;101820.88;1673133;84;21126;-44
2021/04/11 00:25:35;;;;;;;0.80;0.80;;;;;;;-3.00;83.46;101824.88;1703305;84;21568;-44
2021/04/11 00:28:03;;;;;;;0.75;0.75;;;;;;;-3.01;83.60;101819.70;1703243;84;21579;-44
2021/04/11 00:30:31;;;;;;;0.45;0.45;;;;;;;-3.04;83.77;101818.19;1703149;83;21191;-44
2021/04/11 00:33:00;;;;;;;0.10;0.10;;;;;;;-3.05;83.95;101825.34;1703414;83;21114;-44
2021/04/11 00:35:27;;;;;;;0.50;0.50;;;;;;;-3.07;84.16;101825.99;1703344;84;21129;-45
2021/04/11 00:37:58;;;;;;;0.15;0.15;;;;;;;-3.09;84.24;101824.00;1703345;84;21178;-44
2021/04/11 00:40:33;;;;;;;2.30;0.72;;;;;;;-3.12;84.27;101820.28;1703108;83;21158;-44
2021/04/11 00:43:09;;;;;;;0.37;0.37;;;;;;;-3.15;84.30;101821.94;1703271;84;21161;-44
2021/04/11 00:45:50;;;;;;;0.15;0.15;;;;;;;-3.16;84.28;101828.29;1703292;84;21138;-44
2021/04/11 00:48:18;;;;;;;0.20;0.20;;;;;;;-3.17;84.29;101824.42;1675045;84;21447;-44
2021/04/11 00:51:00;;;;;;;0.25;0.25;;;;;;;-3.19;84.29;101823.73;1703321;84;21178;-44
2021/04/11 00:53:27;;;;;;;0.17;0.17;;;;;;;-3.20;84.19;101821.56;1703489;84;21144;-44
2021/04/11 00:55:54;;;;;;;0.40;0.40;;;;;;;-3.22;84.14;101824.88;1702959;84;21130;-44
2021/04/11 00:58:23;;;;;;;0.30;0.30;;;;;;;-3.22;84.14;101822.71;1673370;84;21162;-44
2021/04/11 01:00:52;;;;;;;0.28;0.28;;;;;;;-3.24;84.08;101825.53;1702909;84;21122;-44
2021/04/11 01:03:23;;;;;;;0.20;0.20;;;;;;;-3.25;84.04;101831.38;1673254;84;21119;-44
2021/04/11 01:05:50;;;;;;;0.68;0.68;;;;;;;-3.25;84.04;101823.86;1673144;84;21504;-44
2021/04/11 01:08:28;;;;;;;0.10;0.10;;;;;;;-3.27;84.05;101836.54;1672850;84;21181;-44
2021/04/11 01:11:17;;;;;;;1.02;1.02;;;;;;;-3.28;84.07;101837.05;1650093;84;21141;-44
2021/04/11 01:14:01;;;;;;;0.10;0.10;;;;;;;-3.25;84.09;101840.73;1886673;76;29047;-44
2021/04/11 01:16:32;;;;;;;0.10;0.10;;;;;;;-3.32;84.07;101838.84;1784830;80;21154;-43
2021/04/11 01:19:01;;;;;;;0.17;0.17;;;;;;;-3.35;84.06;101846.67;1803591;79;21127;-44
2021/04/11 01:21:54;;;;;;;0.00;0.00;;;;;;;-3.37;84.09;101842.47;1800052;79;21114;-44
2021/04/11 01:24:41;;;;;;;0.75;0.75;;;;;;;-3.42;84.20;101852.28;1800082;79;21442;-44
2021/04/11 01:27:14;;;;;;;0.95;0.42;;;;;;;-3.43;84.46;101850.62;1784603;80;21111;-44
2021/04/11 01:29:43;;;;;;;0.65;0.65;;;;;;;-3.46;84.58;101851.77;1786467;79;21096;-44
2021/04/11 01:32:11;;;;;;;0.23;0.23;;;;;;;-3.47;84.65;101852.73;1769457;79;21182;-44
2021/04/11 01:34:40;;;;;;;2.75;1.07;;;;;;;-3.48;84.66;101857.75;1738740;81;21534;-44
2021/04/11 01:37:09;;;;;;;0.37;0.35;;;;;;;-3.48;84.64;101854.25;1738948;81;21700;-44
2021/04/11 01:39:39;;;;;;;0.25;0.25;;;;;;;-3.49;84.60;101853.88;1768473;80;21126;-44
2021/04/11 01:42:07;;;;;;;0.13;0.13;;;;;;;-3.50;84.62;101855.72;1768463;81;21149;-44
2021/04/11 01:44:38;;;;;;;0.30;0.30;;;;;;;-3.50;84.58;101855.72;1727691;79;21185;-44
2021/04/11 01:47:08;;;;;;;0.15;0.15;;;;;;;-3.52;84.61;101861.71;1770485;79;21175;-44
2021/04/11 01:49:37;;;;;;;1.00;1.00;;;;;;;-3.52;84.57;101870.23;1768007;81;21553;-44
2021/04/11 01:52:10;;;;;;;0.45;0.45;;;;;;;-3.54;84.60;101869.03;1738528;81;21154;-44
2021/04/11 01:54:37;;;;;;;0.20;0.20;;;;;;;-3.55;84.57;101874.05;1769300;79;21150;-44
2021/04/11 01:57:08;;;;;;;0.10;0.10;;;;;;;-3.56;84.56;101871.52;1784712;80;21581;-44
2021/04/11 01:59:36;;;;;;;0.10;0.10;;;;;;;-3.61;84.54;101873.34;1772062;80;21154;-44
2021/04/11 02:02:06;;;;;;;0.10;0.10;;;;;;;-3.63;84.66;101878.48;1790633;79;21148;-44
2021/04/11 02:04:34;;;;;;;0.25;0.25;;;;;;;-3.65;84.85;101873.78;1803750;79;21116;-44
2021/04/11 02:07:02;;;;;;;0.40;0.40;;;;;;;-3.67;85.07;101872.59;1733100;82;21514;-44
2021/04/11 02:09:42;;;;;;;0.17;0.17;;;;;;;-3.65;85.24;101875.13;1830574;76;28670;-44
2021/04/11 02:12:17;;;;;;;0.60;0.60;;;;;;;-3.71;85.34;101882.75;1784845;80;21130;-44
2021/04/11 02:14:48;;;;;;;0.23;0.23;;;;;;;-3.72;85.34;101882.89;1756587;80;21141;-44
2021/04/11 02:17:16;;;;;;;0.10;0.10;;;;;;;-3.74;85.33;101889.70;1786092;80;21126;-44
2021/04/11 02:19:44;;;;;;;0.10;0.10;;;;;;;-3.75;85.34;101888.54;1786072;80;21126;-44
2021/04/11 02:22:26;;;;;;;0.42;0.42;;;;;;;-3.77;85.42;101893.19;1755517;80;21117;-44
2021/04/11 02:24:58;;;;;;;0.60;0.60;;;;;;;-3.80;85.44;101884.98;1786155;80;21158;-44
2021/04/11 02:27:25;;;;;;;0.93;0.57;;;;;;;-3.81;85.50;101894.47;1706019;80;21106;-44
2021/04/11 02:29:53;;;;;;;0.47;0.47;;;;;;;-3.82;85.48;101892.80;1731470;80;21117;-44
2021/04/11 02:32:21;;;;;;;0.78;0.78;;;;;;;-3.82;85.45;101889.62;1786100;80;21134;-44
2021/04/11 02:41:57;;;;;;;0.30;0.30;;;;;;;-3.81;85.42;101895.80;1888381;75;27265;-40
2021/04/11 02:44:26;;;;;;;0.10;0.10;;;;;;;-3.87;85.37;101904.42;1831848;77;21105;-40
2021/04/11 02:46:55;;;;;;;1.17;0.80;;;;;;;-3.88;85.32;101907.59;1732498;80;21146;-41
2021/04/11 02:49:23;;;;;;;0.50;0.50;;;;;;;-3.90;85.30;101906.40;1756401;81;21564;-40
2021/04/11 02:51:52;;;;;;;0.10;0.10;;;;;;;-3.93;85.31;101906.70;1789300;80;21094;-40
2021/04/11 02:54:21;;;;;;;0.10;0.10;;;;;;;-3.94;85.29;101917.02;1707027;81;21138;-41
2021/04/11 02:56:49;;;;;;;0.28;0.28;;;;;;;-3.96;85.34;101904.80;1763354;80;21529;-40
2021/04/11 02:59:19;;;;;;;0.78;0.78;;;;;;;-3.98;85.43;101910.31;1731803;81;21206;-40
2021/04/11 03:01:49;;;;;;;1.05;1.05;;;;;;;-4.01;85.53;101909.25;1789068;80;21106;-41
2021/04/11 03:04:21;;;;;;;0.53;0.53;;;;;;;-4.01;85.58;101914.59;1756430;81;21213;-40
2021/04/11 03:07:04;;;;;;;0.30;0.30;;;;;;;-4.02;85.64;101913.42;1789286;80;21138;-41
2021/04/11 03:09:42;;;;;;;0.33;0.33;;;;;;;-4.05;85.72;101915.06;1756170;81;21143;-41
2021/04/11 03:12:11;;;;;;;0.20;0.20;;;;;;;-4.08;85.80;101918.84;1789064;80;21039;-40
2021/04/11 03:14:41;;;;;;;0.20;0.20;;;;;;;-4.12;85.91;101922.81;1756082;81;21163;-41
2021/04/11 03:17:21;;;;;;;1.00;0.53;;;;;;;-4.13;86.00;101925.98;1763201;80;21453;-40
2021/04/11 03:19:58;;;;;;;0.15;0.15;;;;;;;-4.13;86.12;101923.78;1702587;81;21128;-41
2021/04/11 03:22:26;;;;;;;0.45;0.45;;;;;;;-4.13;86.16;101927.78;1759308;80;21118;-40
2021/04/11 03:24:53;;;;;;;0.10;0.10;;;;;;;-4.14;86.27;101931.45;1789470;79;21113;-40
2021/04/11 03:27:33;;;;;;;0.23;0.23;;;;;;;-4.14;86.30;101936.30;1755836;81;21138;-41
2021/04/11 03:30:16;;;;;;;0.20;0.20;;;;;;;-4.12;86.39;101934.83;1761450;80;21217;-41
2021/04/11 03:32:54;;;;;;;0.20;0.20;;;;;;;-4.08;86.53;101940.20;1756675;81;21588;-41
2021/04/11 03:35:25;;;;;;;0.15;0.15;;;;;;;-4.04;86.63;101936.26;1761457;80;21190;-42
2021/04/11 03:37:54;;;;;;;1.25;1.15;;;;;;;-3.99;86.70;101937.98;1756648;81;21191;-42
2021/04/11 03:40:24;;;;;;;0.25;0.25;;;;;;;-3.90;86.72;101939.78;1785775;79;21585;-41
2021/04/11 03:42:56;;;;;;;0.20;0.20;;;;;;;-3.81;86.57;101946.05;1753313;80;21365;-40
2021/04/11 03:45:24;;;;;;;0.10;0.10;;;;;;;-3.73;86.39;101946.67;1721054;82;21127;-41
2021/04/11 03:47:56;;;;;;;0.45;0.45;;;;;;;-3.64;86.22;101953.77;1774403;80;21067;-41
2021/04/11 03:50:31;;;;;;;0.23;0.23;;;;;;;-3.55;86.02;101956.89;1742146;81;21181;-40
2021/04/11 03:53:09;;;;;;;0.20;0.20;;;;;;;-3.48;85.83;101954.47;1773067;80;21554;-39
2021/04/11 03:55:40;;;;;;;0.10;0.10;;;;;;;-3.40;85.67;101959.06;1740919;81;21118;-40
2021/04/11 03:58:19;;;;;;;0.23;0.23;;;;;;;-3.33;85.64;101959.64;1727496;80;21178;-40
2021/04/11 04:00:52;;;;;;;0.10;0.10;;;;;;;-3.25;85.54;101961.05;1740815;82;21122;-42
2021/04/11 04:03:23;;;;;;;0.25;0.25;;;;;;;-3.15;85.50;101959.64;1751689;80;21569;-40
2021/04/11 04:05:50;;;;;;;0.10;0.10;;;;;;;-3.04;85.55;101971.97;1741178;81;20987;-40
2021/04/11 04:08:19;;;;;;;0.10;0.10;;;;;;;-2.94;85.57;101972.73;1727936;80;21103;-42
2021/04/11 04:11:11;;;;;;;0.15;0.15;;;;;;;-2.84;85.47;101972.65;1741356;81;21106;-40
2021/04/11 04:13:50;;;;;;;0.33;0.33;;;;;;;-2.72;85.35;101974.09;1773773;80;21167;-40
2021/04/11 04:16:22;;;;;;;0.20;0.20;;;;;;;-2.60;85.16;101971.52;1741363;82;21141;-43
2021/04/11 04:19:06;;;;;;;0.33;0.33;;;;;;;-2.46;84.96;101969.26;1773048;80;20957;-39
2021/04/11 04:22:05;;;;;;;0.25;0.25;;;;;;;-2.34;85.01;101976.04;1741366;82;21541;-40
2021/04/11 04:24:48;;;;;;;0.17;0.17;;;;;;;-2.19;85.11;101975.80;1768426;80;22001;-40
2021/04/11 04:27:29;;;;;;;0.30;0.30;;;;;;;-1.99;85.35;101975.58;1741289;82;21130;-41
2021/04/11 04:30:28;;;;;;;0.82;0.82;;;;;;;-1.84;85.03;101982.01;1773610;80;21102;-40
2021/04/11 04:33:24;;;;;;;0.20;0.20;;;;;;;-1.68;84.75;101975.90;1741571;82;21656;-41
2021/04/11 04:36:11;;;;;;;1.17;1.17;;;;;;;-1.49;84.45;101983.33;1773640;80;21534;-41
2021/04/11 04:39:04;;;;;;;0.37;0.37;;;;;;;-1.31;84.28;101980.05;1741269;81;21125;-41
2021/04/11 04:41:45;;;;;;;0.37;0.37;;;;;;;-1.12;83.89;101978.39;1778473;80;21107;-40
2021/04/11 04:44:41;;;;;;;0.30;0.20;;;;;;;-0.92;83.72;101989.66;1762377;80;22042;-40
2021/04/11 04:47:31;;;;;;;0.30;0.30;;;;;;;-0.74;83.50;101985.97;1759365;80;21114;-41
2021/04/11 04:50:11;;;;;;;1.15;1.00;;;;;;;-0.55;83.15;101985.64;1780580;80;21122;-42
2021/04/11 04:52:43;;;;;;;1.32;1.27;;;;;;;-0.29;82.85;101988.66;1762100;81;21132;-40
2021/04/11 04:55:16;;;;;;;0.70;0.70;;;;;;;-0.09;82.50;101993.98;1759357;80;21154;-41
2021/04/11 04:57:57;;;;;;;0.47;0.47;;;;;;;0.12;82.23;101992.59;1781231;80;21896;-41
2021/04/11 05:00:37;;;;;;;0.93;0.93;;;;;;;0.33;81.97;101994.20;1754588;80;21196;-41
2021/04/11 05:03:28;;;;;;;0.80;0.75;;;;;;;0.57;81.63;101993.75;1759877;80;21608;-40
2021/04/11 05:06:13;;;;;;;0.30;0.30;;;;;;;0.80;81.30;101993.82;1758610;81;21167;-41
2021/04/11 05:08:57;;;;;;;0.40;0.40;;;;;;;1.09;80.75;101987.75;1780779;80;21589;-40
2021/04/11 05:11:31;;;;;;;;;;;;;;;1.38;79.98;101991.05;1764967;81;21210;-40
2021/04/11 05:14:10;;;;;;;0.20;0.20;;;;;;;1.66;79.37;101994.53;1722809;82;20540;-40
2021/04/11 05:16:45;;;;;;;0.10;0.10;;;;;;;1.89;78.66;101985.03;1732158;82;21463;-40
2021/04/11 05:19:20;;;;;;;2.05;1.65;;;;;;;2.14;77.98;101990.48;1709086;82;21113;-41
2021/04/11 05:22:17;;;;;;;1.70;1.60;;;;;;;2.48;76.74;101989.59;1871949;76;28029;-40
2021/04/11 05:24:47;;;;;;;2.98;2.55;;;;;;;2.69;75.48;101990.14;1837150;77;21122;-40
2021/04/11 05:27:34;;;;;;;0.20;0.20;;;;;;;3.01;74.05;101997.77;1794149;78;21520;-41
2021/04/11 05:30:25;;;;;;;0.57;0.42;;;;;;;3.27;72.87;102004.50;1822158;77;21133;-40
2021/04/11 05:32:53;;;;;;;1.27;1.20;;;;;;;3.53;72.89;102009.81;1688492;83;21176;-40
2021/04/11 05:35:21;;;;;;;0.70;0.70;;;;;;;3.77;72.66;102014.81;1791502;78;21148;-41
2021/04/11 05:38:25;;;;;;;0.45;0.45;;;;;;;3.99;72.35;102008.84;1822641;78;21105;-40
2021/04/11 05:40:58;;;;;;;2.10;1.27;;;;;;;4.20;71.59;102010.63;1822627;78;21902;-40
2021/04/11 05:43:31;;;;;;;0.53;0.53;;;;;;;4.47;70.75;102004.01;1821608;77;21133;-40
2021/04/11 05:46:13;;;;;;;1.98;0.37;;;;;;;4.73;70.29;102000.06;1821971;78;21109;-41
2021/04/11 05:48:55;;;;;;;1.17;0.80;;;;;;;5.08;69.25;102004.55;1861270;76;23633;-40
2021/04/11 05:51:33;;;;;;;0.55;0.42;;;;;;;5.25;68.53;102007.19;1801918;77;21134;-41
2021/04/11 05:54:29;;;;;;;0.85;0.80;;;;;;;5.46;67.43;102006.69;1837435;77;21672;-41
2021/04/11 05:57:02;;;;;;;2.02;1.90;;;;;;;5.71;65.68;102004.19;1856383;77;21510;-40
2021/04/11 05:59:44;;;;;;;1.00;1.00;;;;;;;6.01;64.14;101993.25;1847351;77;21135;-40
2021/04/11 06:02:35;;;;;;;1.55;0.70;;;;;;;6.33;62.56;101999.33;1825078;76;23323;-41
2021/04/11 06:05:21;;;;;;;0.40;0.40;;;;;;;6.48;61.07;102003.14;1792717;77;21165;-40
2021/04/11 06:08:27;;;;;;;0.82;0.82;;;;;;;6.70;59.90;102011.34;1780051;78;21497;-42
2021/04/11 06:11:00;;;;;;;2.40;1.25;;;;;;;6.97;59.71;102011.19;1797075;79;21176;-41
2021/04/11 06:13:48;;;;;;;1.02;1.02;;;;;;;7.20;58.28;102014.20;1803795;78;21149;-41
2021/04/11 06:16:18;;;;;;;0.75;0.75;;;;;;;7.43;58.09;102010.08;1786069;78;21157;-40
2021/04/11 06:18:50;;;;;;;1.00;1.00;;;;;;;7.67;57.94;102013.88;1786299;78;21210;-41
2021/04/11 06:21:33;;;;;;;;;;;;;;;7.90;58.15;102024.14;1789868;78;21130;-41
2021/04/11 06:24:31;;;;;;;6.00;1.65;;;;;;;8.11;56.40;102018.30;1790811;78;20296;-40
2021/04/11 06:27:27;;;;;;;0.50;0.50;;;;;;;8.34;56.69;102017.63;1801071;78;21113;-40
2021/04/11 06:30:06;;;;;;;0.53;0.53;;;;;;;8.61;55.71;102017.36;1797702;78;21211;-40
2021/04/11 06:32:49;;;;;;;1.17;1.17;;;;;;;8.89;56.03;102015.43;1803883;78;21102;-42
2021/04/11 06:35:26;;;;;;;2.22;1.98;;;;;;;9.07;54.93;102015.09;1765992;78;21280;-41
2021/04/11 06:37:57;;;;;;;2.47;0.93;;;;;;;9.27;53.01;102006.08;1804829;78;21150;-43
2021/04/11 06:40:53;;;;;;;0.25;0.25;;;;;;;9.47;51.98;102009.36;1805129;78;21470;-41
2021/04/11 06:43:44;;;;;;;0.70;0.70;;;;;;;9.69;52.11;102007.41;1784157;78;21169;-41
2021/04/11 06:46:54;;;;;;;0.98;0.68;;;;;;;9.89;49.74;102001.11;1752235;81;21186;-41
2021/04/11 06:50:10;;;;;;;0.70;0.70;;;;;;;10.06;48.13;102002.59;1730018;82;21205;-41
2021/04/11 06:53:11;;;;;;;0.42;0.42;;;;;;;10.27;48.24;102002.50;1764064;80;21146;-43
2021/04/11 06:56:18;;;;;;;0.47;0.47;;;;;;;10.48;44.59;101996.98;1791997;80;21183;-41
2021/04/11 06:59:00;;;;;;;1.62;1.25;;;;;;;10.62;43.44;102000.27;1782342;80;21824;-41
2021/04/11 07:02:02;;;;;;;1.85;0.70;;;;;;;10.79;43.65;102002.25;1773546;80;21116;-41
2021/04/11 07:05:14;;;;;;;0.40;0.40;;;;;;;10.92;41.62;101994.57;1729339;82;21629;-42
2021/04/11 07:08:14;;;;;;;0.72;0.72;;;;;;;11.01;41.78;101990.92;1755918;81;21142;-41
2021/04/11 07:11:15;;;;;;;0.53;0.47;;;;;;;11.22;42.87;101995.39;1711216;81;21449;-42
2021/04/11 07:14:21;;;;;;;1.37;0.53;;;;;;;11.37;41.35;101999.25;1728518;82;21300;-41
2021/04/11 07:17:23;;;;;;;1.20;0.55;;;;;;;11.53;41.22;101997.59;1716618;82;21178;-42
2021/04/11 07:20:31;;;;;;;0.95;0.55;;;;;;;11.70;41.15;102002.25;1739199;82;21460;-42
2021/04/11 07:23:22;;;;;;;0.20;0.20;;;;;;;11.91;39.84;102003.42;1739583;82;21930;-41
2021/04/11 07:26:23;;;;;;;0.78;0.75;;;;;;;12.01;37.59;101994.81;1739704;82;21145;-42
2021/04/11 07:29:19;;;;;;;0.75;0.70;;;;;;;12.16;37.52;101999.69;1739667;82;21149;-41
2021/04/11 07:32:18;;;;;;;0.25;0.25;;;;;;;12.33;38.59;101998.27;1739782;81;21523;-42
2021/04/11 07:35:06;;;;;;;0.10;0.10;;;;;;;12.54;39.04;101995.83;1739753;81;21177;-42
2021/04/11 07:37:58;;;;;;;0.37;0.37;;;;;;;12.71;37.41;102002.07;1739514;82;21173;-41
2021/04/11 07:41:08;;;;;;;0.45;0.20;;;;;;;12.81;36.23;102004.08;1739542;81;21213;-41
2021/04/11 07:44:32;;;;;;;0.40;0.40;;;;;;;12.91;36.71;102006.96;1739434;81;21137;-42
2021/04/11 07:47:32;;;;;;;0.10;0.10;;;;;;;13.05;37.06;102000.52;1739639;82;21126;-42
2021/04/11 07:50:40;;;;;;;0.50;0.50;;;;;;;13.17;35.93;101998.99;1861988;76;22732;-40
2021/04/11 07:53:29;;;;;;;0.00;0.00;;;;;;;13.19;34.06;101996.27;1819624;78;21414;-41
2021/04/11 07:56:32;;;;;;;0.10;0.10;;;;;;;13.31;33.81;101989.29;1779674;78;21669;-41
2021/04/11 07:59:41;;;;;;;1.05;0.88;;;;;;;13.43;34.06;101992.70;1818422;78;21154;-40
2021/04/11 08:02:20;;;;;;;0.25;0.25;;;;;;;13.58;35.68;101985.13;1818421;78;21126;-41
2021/04/11 08:05:17;;;;;;;0.70;0.20;;;;;;;13.85;35.00;101982.87;1818373;78;21177;-40
2021/04/11 08:08:06;;;;;;;0.08;0.08;;;;;;;14.08;33.97;101987.95;1816142;78;21138;-41
2021/04/11 08:11:17;;;;;;;0.35;0.30;;;;;;;14.13;30.92;101977.54;1818247;78;21157;-41
2021/04/11 08:13:52;;;;;;;0.20;0.20;;;;;;;14.12;33.50;101978.09;1818227;78;21668;-40
2021/04/11 08:16:30;;;;;;;0.05;0.05;;;;;;;14.13;33.54;101976.98;1787471;78;21150;-41
2021/04/11 08:19:03;;;;;;;0.40;0.40;;;;;;;14.14;30.18;101971.79;1785526;78;21402;-40
2021/04/11 08:21:38;;;;;;;0.57;0.35;;;;;;;14.22;31.41;101973.72;1752545;78;21177;-42
2021/04/11 08:24:44;;;;;;;0.10;0.10;;;;;;;14.31;32.37;101964.70;1762417;78;21188;-40
2021/04/11 08:27:45;;;;;;;0.95;0.95;;;;;;;14.37;28.72;101968.33;1818290;78;21126;-40
2021/04/11 08:30:52;;;;;;;2.20;1.02;;;;;;;14.27;29.67;101967.73;1818321;77;21130;-41
2021/04/11 08:33:55;;;;;;;1.75;0.42;;;;;;;14.24;30.66;101970.17;1819346;77;21115;-40
2021/04/11 08:37:04;;;;;;;0.80;0.80;;;;;;;14.29;31.34;101954.55;1759950;80;21150;-42
2021/04/11 08:39:52;;;;;;;0.75;0.25;;;;;;;14.49;31.12;101955.70;1761998;79;21165;-41
2021/04/11 08:42:41;;;;;;;1.27;1.05;;;;;;;14.65;30.47;101952.50;1756432;81;21162;-41
2021/04/11 08:45:25;;;;;;;0.62;0.62;;;;;;;14.90;30.34;101947.62;1750992;81;21190;-40
2021/04/11 08:48:26;;;;;;;0.65;0.65;;;;;;;15.16;29.38;101945.19;1754855;79;21143;-41
2021/04/11 08:51:19;;;;;;;0.42;0.42;;;;;;;15.29;28.93;101949.32;1755987;81;21147;-42
2021/04/11 08:54:20;;;;;;;0.62;0.62;;;;;;;15.23;31.93;101947.65;1658644;85;21279;-40
2021/04/11 08:57:27;;;;;;;2.85;0.80;;;;;;;15.27;30.95;101937.75;1913096;74;23160;-41
2021/04/11 08:59:59;;;;;;;0.28;0.25;;;;;;;15.16;30.86;101930.60;1831709;75;21581;-40
2021/04/11 09:03:01;;;;;;;0.45;0.45;;;;;;;15.26;32.63;101930.60;1801716;78;21567;-41
2021/04/11 09:05:52;;;;;;;0.20;0.20;;;;;;;15.38;31.84;101935.28;1788584;77;21153;-45
2021/04/11 09:08:34;;;;;;;0.80;0.60;;;;;;;15.38;31.67;101934.44;1819838;78;21098;-45
2021/04/11 09:11:37;;;;;;;0.47;0.33;;;;;;;15.37;29.51;101926.73;1789927;80;21173;-45
2021/04/11 09:14:38;;;;;;;2.47;1.15;;;;;;;15.25;28.98;101920.67;1752414;79;21125;-45
2021/04/11 09:17:24;;;;;;;1.35;0.88;;;;;;;15.19;30.07;101919.85;1756788;80;21166;-40
2021/04/11 09:20:28;;;;;;;1.10;1.00;;;;;;;15.22;31.92;101922.05;1770628;80;21839;-41
2021/04/11 09:23:10;;;;;;;1.27;1.00;;;;;;;15.40;32.69;101922.59;1710739;83;21152;-41
2021/04/11 09:25:38;;;;;;;2.08;0.98;;;;;;;15.47;30.96;101920.39;1781567;80;21511;-41
2021/04/11 09:28:27;;;;;;;2.83;1.30;;;;;;;15.39;30.57;101925.91;1760659;80;21144;-41
2021/04/11 09:31:34;;;;;;;2.65;1.20;;;;;;;15.23;31.46;101914.61;1754622;81;21127;-40
2021/04/11 09:34:39;;;;;;;1.12;1.02;;;;;;;15.05;29.51;101909.09;1730069;79;21134;-40
2021/04/11 09:37:43;;;;;;;0.82;0.62;;;;;;;14.99;30.80;101915.16;1752304;80;21391;-40
2021/04/11 09:40:35;;;;;;;3.17;1.72;;;;;;;14.98;30.98;101912.11;1791255;80;21538;-42
2021/04/11 09:43:29;;;;;;;1.30;1.20;;;;;;;15.11;32.60;101906.64;1778095;80;21565;-40
2021/04/11 09:46:19;;;;;;;0.30;0.30;;;;;;;15.11;30.48;101905.79;1752495;81;21673;-43
2021/04/11 09:49:25;;;;;;;3.90;0.72;;;;;;;15.09;30.58;101901.95;1788422;80;21142;-41
2021/04/11 09:52:32;;;;;;;2.00;1.07;;;;;;;15.05;29.87;101897.53;1778589;80;21599;-42
2021/04/11 09:55:32;;;;;;;1.02;0.98;;;;;;;15.08;32.38;101896.71;1785146;79;21122;-42
2021/04/11 09:58:23;;;;;;;0.60;0.60;;;;;;;15.17;30.70;101893.70;1790699;80;21139;-41
2021/04/11 10:01:26;;;;;;;0.85;0.85;;;;;;;15.15;29.57;101893.95;1789376;80;21160;-41
2021/04/11 10:04:31;;;;;;;2.40;0.88;;;;;;;15.11;30.10;101890.13;1726069;81;21170;-41
2021/04/11 10:07:33;;;;;;;2.42;1.17;;;;;;;15.08;28.73;101885.70;1777896;80;21404;-41
2021/04/11 10:10:42;;;;;;;0.47;0.47;;;;;;;15.13;30.79;101882.39;1756375;79;21115;-41
2021/04/11 10:13:46;;;;;;;2.25;1.10;;;;;;;15.19;28.36;101878.55;1755814;81;21470;-40
2021/04/11 10:16:40;;;;;;;2.83;1.25;;;;;;;15.22;30.16;101875.80;1798320;78;21193;-45
2021/04/11 10:19:19;;;;;;;2.85;1.57;;;;;;;15.26;29.07;101877.72;1819624;77;21135;-45
2021/04/11 10:22:11;;;;;;;0.75;0.75;;;;;;;15.22;30.99;101873.04;1788234;80;21142;-45
2021/04/11 10:25:05;;;;;;;0.75;0.75;;;;;;;15.22;29.13;101874.41;1789098;80;21166;-41
2021/04/11 10:28:06;;;;;;;0.72;0.72;;;;;;;15.24;31.17;101866.16;1737525;81;21185;-45
2021/04/11 10:30:34;;;;;;;0.75;0.75;;;;;;;15.29;31.10;101872.22;1729223;81;21126;-45
2021/04/11 10:33:20;;;;;;;0.68;0.47;;;;;;;15.40;30.88;101872.46;1775562;78;21150;-45
2021/04/11 10:36:05;;;;;;;2.65;1.10;;;;;;;15.52;31.62;101869.98;1730002;81;21147;-45
2021/04/11 10:38:45;;;;;;;1.50;1.35;;;;;;;15.58;28.97;101877.12;1753060;81;21442;-45
2021/04/11 10:41:34;;;;;;;0.98;0.90;;;;;;;15.56;28.83;101871.09;1788114;80;22067;-45
2021/04/11 10:44:45;;;;;;;0.40;0.40;;;;;;;15.66;28.69;101873.81;1753235;81;21201;-45
2021/04/11 10:47:37;;;;;;;1.47;0.97;;;;;;;15.69;28.53;101863.08;1698161;83;21162;-45
2021/04/11 10:50:18;;;;;;;0.25;0.25;;;;;;;15.79;29.72;101862.22;1753726;81;21118;-45
2021/04/11 10:53:18;;;;;;;0.93;0.85;;;;;;;15.99;29.10;101850.86;1886664;74;22790;-45
2021/04/11 10:56:35;;;;;;;0.50;0.50;;;;;;;16.13;28.67;101862.94;1820499;78;21205;-45
2021/04/11 10:59:08;;;;;;;2.33;1.32;;;;;;;16.20;28.89;101859.33;1820992;76;21151;-45
2021/04/11 11:01:59;;;;;;;0.42;0.42;;;;;;;16.32;29.57;101863.95;1818422;76;21442;-45
2021/04/11 11:05:12;;;;;;;1.67;1.07;;;;;;;16.50;28.02;101857.52;1842712;77;21113;-45
2021/04/11 11:08:07;;;;;;;1.00;1.00;;;;;;;16.54;26.77;101856.66;1821013;78;21143;-45
2021/04/11 11:11:19;;;;;;;0.82;0.42;;;;;;;16.34;27.03;101854.00;1820860;78;21108;-45
2021/04/11 11:14:14;;;;;;;1.57;0.70;;;;;;;16.38;27.45;101845.99;1825107;77;21190;-46
2021/04/11 11:17:22;;;;;;;3.02;0.57;;;;;;;16.37;26.84;101850.70;1853435;77;21154;-45
2021/04/11 11:20:24;;;;;;;0.45;0.45;;;;;;;16.22;27.43;101840.56;1768062;80;21179;-45
2021/04/11 11:23:18;;;;;;;1.42;0.65;;;;;;;16.13;27.85;101839.50;1756393;80;21166;-45
2021/04/11 11:26:17;;;;;;;2.20;0.70;;;;;;;16.08;28.34;101831.25;1780233;80;21151;-45
2021/04/11 11:29:39;;;;;;;1.92;1.80;;;;;;;16.06;28.21;101832.09;1785336;79;21253;-45
2021/04/11 11:32:33;;;;;;;0.57;0.57;;;;;;;16.08;27.23;101831.25;1784648;80;21171;-45
2021/04/11 11:35:05;;;;;;;1.02;0.90;;;;;;;16.18;25.88;101822.92;1781779;80;21166;-45
2021/04/11 11:37:57;;;;;;;1.37;0.88;;;;;;;16.40;26.17;101813.44;1771953;80;21534;-45
2021/04/11 11:41:13;;;;;;;2.47;1.85;;;;;;;16.79;26.29;101811.23;1763821;79;21106;-45
2021/04/11 11:44:05;;;;;;;0.55;0.55;;;;;;;17.18;25.86;101806.50;1754004;80;21696;-45
2021/04/11 11:47:02;;;;;;;10.55;6.05;;;;;;;17.23;25.69;101804.22;1769141;78;21153;-45
2021/04/11 11:49:52;;;;;;;2.85;2.65;;;;;;;17.20;25.68;101800.09;1784708;80;21450;-45
2021/04/11 11:52:48;;;;;;;3.15;1.30;;;;;;;17.14;26.72;101809.56;1759332;80;21118;-45
2021/04/11 11:55:24;;;;;;;0.88;0.68;;;;;;;17.17;26.54;101797.11;1775362;80;21115;-45
2021/04/11 11:58:14;;;;;;;2.30;1.30;;;;;;;17.77;24.08;101780.13;1762708;80;21405;-45
2021/04/11 12:00:45;;;;;;;0.85;0.72;;;;;;;17.77;24.08;101780.13;1736599;80;21099;-45
2021/04/11 12:03:24;;;;;;;;;;;;;;;17.94;24.20;101771.38;1759293;80;21454;-45
2021/04/11 12:06:21;;;;;;;1.92;1.67;;;;;;;18.09;23.97;101769.78;1762958;80;20264;-45
2021/04/11 12:09:12;;;;;;;3.62;2.70;;;;;;;18.30;25.43;101763.41;1779104;80;21127;-45
2021/04/11 12:11:49;;;;;;;2.75;1.12;;;;;;;18.50;26.18;101766.98;1760908;80;21131;-45
2021/04/11 12:14:29;;;;;;;1.47;1.37;;;;;;;18.63;24.72;101771.17;1780353;80;21135;-45
2021/04/11 12:17:25;;;;;;;1.47;0.93;;;;;;;18.56;24.25;101771.30;1759014;81;21134;-45
2021/04/11 12:20:14;;;;;;;1.02;1.02;;;;;;;18.62;25.64;101761.78;1761061;80;21126;-45
2021/04/11 12:22:51;;;;;;;2.77;1.45;;;;;;;18.90;25.69;101755.24;1789899;80;21134;-45
2021/04/11 12:25:26;;;;;;;1.02;0.93;;;;;;;19.28;24.71;101752.88;1761324;80;21584;-45
2021/04/11 12:27:53;;;;;;;2.40;1.92;;;;;;;19.36;24.30;101756.89;1790141;80;21165;-46
2021/04/11 12:30:33;;;;;;;2.15;0.98;;;;;;;19.30;22.33;101747.86;1790007;78;21112;-45
2021/04/11 12:33:17;;;;;;;2.30;2.10;;;;;;;19.15;23.41;101746.78;1760556;80;21150;-45
2021/04/11 12:35:57;;;;;;;;;;;;;;;18.90;23.04;101751.09;1792691;80;21141;-45
2021/04/11 12:38:44;;;;;;;1.05;1.00;;;;;;;18.65;22.31;101745.40;1790122;80;20998;-45
2021/04/11 12:41:35;;;;;;;1.12;1.02;;;;;;;18.47;24.70;101749.00;1790025;80;21430;-45
2021/04/11 12:44:24;;;;;;;0.93;0.78;;;;;;;18.16;24.68;101750.05;1790039;80;21127;-45
2021/04/11 12:47:15;;;;;;;3.17;1.75;;;;;;;17.82;25.95;101743.59;1791742;78;21099;-45
2021/04/11 12:49:57;;;;;;;1.35;0.80;;;;;;;17.45;26.89;101736.02;1771042;80;21116;-45
2021/04/11 12:52:52;;;;;;;2.17;0.93;;;;;;;17.20;27.08;101743.47;1760587;81;21136;-45